createdAt,value
2018-09-30T00:00:47.121Z,98.30
2018-09-30T00:03:15.554Z,98.50
2018-09-30T00:05:44.066Z,98.60
2018-09-30T00:08:12.476Z,98.60
2018-09-30T00:10:40.991Z,98.70
2018-09-30T00:13:09.450Z,98.90
2018-09-30T00:15:38.101Z,99.00
2018-09-30T00:18:06.270Z,98.90
2018-09-30T00:20:34.970Z,98.80
2018-09-30T00:23:03.727Z,98.70
2018-09-30T00:25:37.733Z,98.80
2018-09-30T00:28:06.208Z,98.90
2018-09-30T00:30:34.733Z,98.90
2018-09-30T00:33:03.225Z,99.00
2018-09-30T00:35:32.093Z,99.20
2018-09-30T00:38:00.721Z,99.30
2018-09-30T00:40:29.259Z,99.40
2018-09-30T00:42:57.763Z,99.50
2018-09-30T00:45:26.245Z,99.20
2018-09-30T00:47:55.017Z,99.20
2018-09-30T00:50:23.811Z,98.90
2018-09-30T00:52:52.442Z,98.90
2018-09-30T00:55:21.068Z,99.00
2018-09-30T00:57:49.648Z,99.10
2018-09-30T01:00:18.159Z,99.30
2018-09-30T01:02:46.638Z,99.40
2018-09-30T01:05:15.073Z,99.40
2018-09-30T01:07:43.672Z,99.40
2018-09-30T01:10:12.180Z,99.30
2018-09-30T01:12:40.648Z,99.40
2018-09-30T01:15:09.144Z,99.50
2018-09-30T01:17:37.810Z,99.50
2018-09-30T01:20:06.354Z,99.50
2018-09-30T01:22:36.830Z,99.60
2018-09-30T01:25:05.575Z,99.70
2018-09-30T01:27:34.364Z,99.60
2018-09-30T01:30:02.822Z,99.60
2018-09-30T01:32:31.309Z,99.60
2018-09-30T01:35:00.028Z,99.60
2018-09-30T01:37:28.638Z,99.70
2018-09-30T01:39:57.126Z,99.70
2018-09-30T01:42:25.569Z,99.80
2018-09-30T01:44:54.025Z,99.90
2018-09-30T01:47:22.516Z,99.90
2018-09-30T01:49:51.156Z,99.90
2018-09-30T01:52:31.010Z,99.90
2018-09-30T01:54:59.499Z,99.90
2018-09-30T01:57:28.040Z,99.90
2018-09-30T01:59:56.506Z,99.90
2018-09-30T02:02:25.005Z,99.90
2018-09-30T02:04:53.569Z,99.90
2018-09-30T02:07:22.139Z,99.90
2018-09-30T02:09:50.594Z,99.90
2018-09-30T02:12:19.226Z,99.90
2018-09-30T02:14:47.706Z,99.90
2018-09-30T02:17:16.193Z,99.90
2018-09-30T02:19:44.827Z,99.90
2018-09-30T02:22:13.563Z,99.90
2018-09-30T02:24:42.207Z,99.90
2018-09-30T02:27:10.862Z,99.90
2018-09-30T02:29:39.660Z,99.90
2018-09-30T02:32:08.369Z,99.90
2018-09-30T02:34:37.023Z,99.90
2018-09-30T02:37:05.708Z,99.90
2018-09-30T02:39:34.342Z,99.90
2018-09-30T02:42:03.102Z,99.90
2018-09-30T02:44:31.559Z,99.90
2018-09-30T02:47:00.170Z,99.90
2018-09-30T02:49:28.940Z,99.90
2018-09-30T02:51:58.044Z,99.90
2018-09-30T02:54:26.532Z,99.90
2018-09-30T02:56:55.278Z,99.90
2018-09-30T02:59:23.748Z,99.90
2018-09-30T03:01:52.418Z,99.90
2018-09-30T03:04:21.191Z,99.90
2018-09-30T03:06:54.900Z,99.90
2018-09-30T03:09:23.611Z,99.90
2018-09-30T03:11:52.135Z,99.90
2018-09-30T03:14:20.593Z,99.90
2018-09-30T03:16:49.076Z,99.90
2018-09-30T03:19:17.765Z,99.90
2018-09-30T03:21:46.345Z,99.90
2018-09-30T03:24:15.160Z,99.90
2018-09-30T03:26:43.714Z,99.90
2018-09-30T03:29:12.156Z,99.90
2018-09-30T03:31:40.965Z,99.90
2018-09-30T03:34:09.712Z,99.90
2018-09-30T03:36:38.174Z,99.90
2018-09-30T03:39:08.123Z,99.90
2018-09-30T03:41:36.860Z,99.90
2018-09-30T03:44:05.404Z,99.90
2018-09-30T03:46:33.848Z,99.90
2018-09-30T03:49:02.512Z,99.90
2018-09-30T03:51:31.006Z,99.90
2018-09-30T03:53:59.529Z,99.90
2018-09-30T03:56:28.125Z,99.90
2018-09-30T03:58:56.599Z,99.90
2018-09-30T04:01:25.259Z,99.90
2018-09-30T04:03:53.938Z,99.90
2018-09-30T04:06:22.474Z,99.90
2018-09-30T04:08:51.046Z,99.90
2018-09-30T04:11:19.817Z,99.90
2018-09-30T04:13:48.248Z,99.90
2018-09-30T04:16:16.852Z,99.90
2018-09-30T04:18:45.353Z,99.90
2018-09-30T04:21:13.826Z,99.90
2018-09-30T04:23:42.300Z,99.90
2018-09-30T04:26:10.721Z,99.90
2018-09-30T04:28:39.158Z,99.90
2018-09-30T04:31:07.669Z,99.90
2018-09-30T04:33:36.112Z,99.90
2018-09-30T04:36:04.769Z,99.90
2018-09-30T04:38:33.239Z,99.90
2018-09-30T04:41:01.730Z,99.90
2018-09-30T04:43:30.186Z,99.90
2018-09-30T04:45:58.827Z,99.90
2018-09-30T04:48:27.305Z,99.90
2018-09-30T04:50:55.809Z,99.90
2018-09-30T04:53:24.290Z,99.90
2018-09-30T04:55:52.730Z,99.90
2018-09-30T04:58:21.186Z,99.90
2018-09-30T05:00:49.686Z,99.90
2018-09-30T05:03:18.128Z,99.90
2018-09-30T05:05:46.595Z,99.90
2018-09-30T05:08:15.092Z,99.90
2018-09-30T05:10:43.846Z,99.90
2018-09-30T05:13:12.378Z,99.90
2018-09-30T05:15:40.849Z,99.90
2018-09-30T05:18:09.340Z,99.90
2018-09-30T05:20:37.843Z,99.90
2018-09-30T05:23:06.268Z,99.90
2018-09-30T05:25:34.854Z,99.90
2018-09-30T05:28:03.266Z,99.90
2018-09-30T05:30:31.882Z,99.90
2018-09-30T05:33:00.358Z,99.90
2018-09-30T05:35:28.795Z,99.90
2018-09-30T05:37:57.303Z,99.90
2018-09-30T05:40:25.778Z,99.90
2018-09-30T05:42:54.377Z,99.90
2018-09-30T05:45:22.872Z,99.90
2018-09-30T05:47:51.595Z,99.90
2018-09-30T05:50:20.020Z,99.90
2018-09-30T05:52:48.680Z,99.90
2018-09-30T05:55:17.229Z,99.90
2018-09-30T05:57:45.702Z,99.90
2018-09-30T06:00:14.263Z,99.90
2018-09-30T06:02:42.831Z,99.90
2018-09-30T06:05:11.299Z,99.90
2018-09-30T06:07:39.802Z,99.90
2018-09-30T06:10:08.271Z,99.90
2018-09-30T06:12:36.707Z,99.90
2018-09-30T06:15:05.364Z,99.90
2018-09-30T06:17:33.806Z,99.90
2018-09-30T06:20:02.269Z,99.90
2018-09-30T06:22:30.985Z,99.90
2018-09-30T06:24:59.445Z,99.90
2018-09-30T06:27:27.952Z,99.90
2018-09-30T06:29:56.678Z,99.90
2018-09-30T06:32:25.202Z,99.90
2018-09-30T06:34:54.084Z,99.90
2018-09-30T06:37:22.601Z,99.90
2018-09-30T06:39:51.146Z,99.90
2018-09-30T06:42:19.645Z,99.90
2018-09-30T06:44:48.221Z,99.90
2018-09-30T06:47:16.758Z,99.90
2018-09-30T06:49:45.414Z,99.90
2018-09-30T06:52:13.937Z,99.90
2018-09-30T06:54:42.440Z,99.90
2018-09-30T06:57:11.167Z,96.00
2018-09-30T06:59:39.729Z,92.10
2018-09-30T07:02:08.416Z,84.80
2018-09-30T07:04:36.999Z,75.40
2018-09-30T07:07:05.473Z,63.60
2018-09-30T07:09:33.985Z,56.20
2018-09-30T07:12:02.538Z,51.20
2018-09-30T07:14:31.255Z,48.30
2018-09-30T07:16:59.925Z,45.30
2018-09-30T07:19:28.439Z,43.10
2018-09-30T07:21:56.889Z,41.20
2018-09-30T07:24:25.383Z,40.00
2018-09-30T07:26:53.940Z,38.30
2018-09-30T07:29:22.404Z,37.50
2018-09-30T07:31:50.955Z,35.70
2018-09-30T07:34:19.457Z,34.70
2018-09-30T07:36:47.982Z,34.50
2018-09-30T07:39:16.524Z,34.30
2018-09-30T07:41:45.015Z,33.00
2018-09-30T07:44:13.482Z,32.40
2018-09-30T07:46:42.025Z,31.90
2018-09-30T07:49:10.506Z,31.80
2018-09-30T07:51:39.038Z,31.80
2018-09-30T07:54:07.777Z,32.10
2018-09-30T07:56:36.471Z,30.80
2018-09-30T07:59:05.236Z,30.00
2018-09-30T08:01:34.224Z,30.20
2018-09-30T08:04:03.621Z,30.20
2018-09-30T08:06:33.173Z,30.00
2018-09-30T08:09:02.841Z,29.50
2018-09-30T08:11:32.008Z,29.50
2018-09-30T08:14:01.799Z,29.10
2018-09-30T08:16:31.096Z,29.30
2018-09-30T08:19:00.210Z,29.30
2018-09-30T08:21:29.680Z,29.40
2018-09-30T08:23:58.629Z,29.30
2018-09-30T08:26:28.307Z,28.70
2018-09-30T08:28:57.553Z,28.00
2018-09-30T08:31:26.894Z,28.10
2018-09-30T08:33:55.922Z,28.30
2018-09-30T08:36:24.846Z,27.80
2018-09-30T08:38:54.177Z,27.50
2018-09-30T08:41:23.891Z,27.00
2018-09-30T08:43:52.544Z,26.70
2018-09-30T08:46:21.054Z,26.30
2018-09-30T08:48:49.593Z,26.30
2018-09-30T08:51:18.272Z,26.30
2018-09-30T08:53:46.814Z,26.70
2018-09-30T08:56:15.420Z,26.40
2018-09-30T08:58:44.199Z,25.40
2018-09-30T09:01:13.039Z,25.50
2018-09-30T09:03:41.762Z,25.40
2018-09-30T09:06:10.392Z,25.30
2018-09-30T09:08:38.892Z,25.00
2018-09-30T09:11:08.010Z,25.00
2018-09-30T09:13:36.725Z,25.00
2018-09-30T09:16:05.265Z,24.50
2018-09-30T09:18:33.844Z,24.70
2018-09-30T09:21:02.873Z,24.40
2018-09-30T09:23:32.479Z,24.10
2018-09-30T09:26:00.926Z,23.20
2018-09-30T09:28:29.774Z,23.30
2018-09-30T09:30:58.593Z,23.60
2018-09-30T09:33:27.177Z,23.70
2018-09-30T09:35:55.829Z,23.20
2018-09-30T09:38:24.423Z,22.90
2018-09-30T09:40:52.999Z,22.90
2018-09-30T09:43:21.506Z,22.50
2018-09-30T09:45:50.487Z,22.40
2018-09-30T09:48:19.270Z,22.20
2018-09-30T09:50:47.963Z,21.90
2018-09-30T09:53:16.830Z,21.00
2018-09-30T09:55:45.796Z,21.40
2018-09-30T09:58:14.521Z,21.10
2018-09-30T10:00:44.865Z,20.90
2018-09-30T10:03:14.860Z,20.70
2018-09-30T10:05:43.769Z,20.50
2018-09-30T10:08:12.774Z,19.90
2018-09-30T10:10:41.259Z,19.30
2018-09-30T10:13:10.251Z,19.60
2018-09-30T10:15:38.929Z,19.70
2018-09-30T10:18:07.465Z,19.80
2018-09-30T10:20:36.108Z,19.90
2018-09-30T10:23:04.722Z,20.30
2018-09-30T10:25:33.276Z,20.70
2018-09-30T10:28:02.112Z,21.30
2018-09-30T10:30:30.675Z,21.00
2018-09-30T10:32:59.331Z,21.20
2018-09-30T10:35:27.923Z,21.30
2018-09-30T10:37:56.415Z,21.30
2018-09-30T10:40:24.959Z,20.80
2018-09-30T10:42:53.893Z,21.40
2018-09-30T10:45:22.616Z,22.10
2018-09-30T10:47:51.306Z,23.10
2018-09-30T10:50:19.991Z,23.90
2018-09-30T10:52:48.580Z,25.50
2018-09-30T10:55:17.656Z,26.90
2018-09-30T10:57:46.084Z,28.60
2018-09-30T11:00:14.894Z,29.10
2018-09-30T11:02:43.441Z,29.80
2018-09-30T11:05:11.924Z,31.40
2018-09-30T11:07:40.479Z,32.20
2018-09-30T11:10:09.125Z,32.40
2018-09-30T11:12:37.895Z,33.10
2018-09-30T11:15:06.468Z,33.60
2018-09-30T11:17:34.965Z,33.70
2018-09-30T11:20:03.948Z,33.80
2018-09-30T11:22:32.786Z,34.40
2018-09-30T11:25:01.633Z,34.40
2018-09-30T11:27:30.204Z,33.70
2018-09-30T11:29:58.756Z,33.80
2018-09-30T11:32:27.647Z,33.90
2018-09-30T11:34:56.506Z,33.90
2018-09-30T11:37:25.830Z,34.10
2018-09-30T11:39:54.833Z,34.80
2018-09-30T11:42:24.471Z,35.60
2018-09-30T11:44:53.159Z,35.20
2018-09-30T11:47:22.156Z,34.90
2018-09-30T11:49:51.244Z,34.90
2018-09-30T11:52:20.788Z,35.60
2018-09-30T11:54:50.713Z,35.40
2018-09-30T11:57:19.250Z,35.30
2018-09-30T11:59:47.813Z,35.00
2018-09-30T12:02:16.832Z,34.80
2018-09-30T12:04:45.245Z,34.60
2018-09-30T12:07:13.907Z,34.50
2018-09-30T12:09:42.458Z,35.10
2018-09-30T12:12:11.215Z,34.90
2018-09-30T12:14:39.714Z,35.10
2018-09-30T12:17:08.266Z,35.00
2018-09-30T12:19:36.804Z,34.80
2018-09-30T12:22:05.339Z,35.10
2018-09-30T12:24:34.079Z,35.40
2018-09-30T12:27:02.530Z,35.50
2018-09-30T12:29:31.213Z,36.10
2018-09-30T12:31:59.716Z,35.50
2018-09-30T12:34:28.207Z,35.40
2018-09-30T12:36:56.862Z,35.50
2018-09-30T12:39:25.410Z,36.30
2018-09-30T12:41:53.812Z,36.10
2018-09-30T12:44:22.443Z,36.00
2018-09-30T12:46:50.994Z,35.80
2018-09-30T12:49:20.168Z,35.90
2018-09-30T12:51:48.669Z,35.40
2018-09-30T12:54:17.327Z,34.50
2018-09-30T12:56:45.871Z,34.40
2018-09-30T12:59:14.356Z,34.40
2018-09-30T13:01:43.018Z,34.50
2018-09-30T13:04:11.702Z,34.30
2018-09-30T13:06:40.197Z,34.60
2018-09-30T13:09:09.708Z,35.20
2018-09-30T13:11:38.359Z,35.10
2018-09-30T13:14:07.469Z,34.80
2018-09-30T13:16:36.012Z,35.10
2018-09-30T13:19:04.532Z,34.70
2018-09-30T13:21:33.024Z,34.20
2018-09-30T13:24:01.954Z,34.30
2018-09-30T13:26:30.499Z,33.70
2018-09-30T13:28:58.985Z,33.90
2018-09-30T13:31:27.690Z,34.00
2018-09-30T13:33:56.218Z,34.70
2018-09-30T13:36:25.798Z,34.80
2018-09-30T13:38:54.599Z,34.70
2018-09-30T13:41:23.161Z,34.40
2018-09-30T13:43:51.897Z,34.80
2018-09-30T13:46:20.479Z,35.40
2018-09-30T13:48:49.133Z,35.10
2018-09-30T13:51:17.902Z,35.00
2018-09-30T13:53:46.379Z,35.70
2018-09-30T13:56:14.921Z,36.00
2018-09-30T13:58:43.489Z,35.50
2018-09-30T14:01:12.161Z,35.00
2018-09-30T14:03:40.896Z,34.80
2018-09-30T14:06:09.558Z,34.70
2018-09-30T14:08:38.299Z,34.80
2018-09-30T14:11:06.995Z,34.90
2018-09-30T14:13:35.505Z,34.70
2018-09-30T14:16:04.078Z,34.80
2018-09-30T14:18:32.590Z,35.00
2018-09-30T14:21:01.232Z,34.50
2018-09-30T14:23:29.847Z,34.90
2018-09-30T14:25:58.388Z,34.70
2018-09-30T14:28:27.256Z,34.80
2018-09-30T14:30:55.823Z,34.60
2018-09-30T14:33:24.344Z,35.20
2018-09-30T14:35:52.869Z,35.20
2018-09-30T14:38:21.453Z,35.10
2018-09-30T14:40:49.981Z,35.20
2018-09-30T14:43:18.599Z,34.90
2018-09-30T14:45:47.685Z,35.20
2018-09-30T14:48:17.001Z,35.90
2018-09-30T14:50:45.884Z,35.60
2018-09-30T14:53:14.996Z,35.50
2018-09-30T14:55:44.266Z,35.20
2018-09-30T14:58:13.614Z,35.10
2018-09-30T15:00:42.239Z,35.40
2018-09-30T15:03:11.516Z,35.80
2018-09-30T15:05:40.149Z,36.20
2018-09-30T15:08:08.653Z,35.80
2018-09-30T15:10:37.330Z,35.80
2018-09-30T15:13:05.999Z,35.80
2018-09-30T15:15:34.638Z,35.90
2018-09-30T15:18:03.229Z,35.90
2018-09-30T15:20:32.319Z,36.00
2018-09-30T15:23:00.860Z,36.10
2018-09-30T15:25:29.502Z,36.30
2018-09-30T15:27:58.265Z,36.80
2018-09-30T15:30:26.864Z,36.50
2018-09-30T15:32:55.550Z,36.60
2018-09-30T15:35:24.284Z,36.80
2018-09-30T15:37:53.010Z,37.00
2018-09-30T15:40:21.614Z,37.30
2018-09-30T15:42:50.319Z,37.50
2018-09-30T15:45:18.954Z,37.70
2018-09-30T15:47:47.472Z,37.90
2018-09-30T15:50:16.082Z,37.80
2018-09-30T15:52:44.695Z,37.70
2018-09-30T15:55:13.265Z,38.10
2018-09-30T15:57:41.781Z,38.40
2018-09-30T16:00:10.369Z,38.50
2018-09-30T16:02:38.961Z,38.90
2018-09-30T16:05:07.640Z,39.00
2018-09-30T16:07:36.162Z,38.80
2018-09-30T16:10:04.817Z,38.80
2018-09-30T16:12:33.488Z,39.20
2018-09-30T16:15:02.241Z,39.40
2018-09-30T16:17:30.831Z,39.60
2018-09-30T16:19:59.376Z,39.90
2018-09-30T16:22:27.894Z,40.80
2018-09-30T16:24:56.573Z,40.20
2018-09-30T16:27:25.111Z,40.20
2018-09-30T16:29:53.614Z,40.30
2018-09-30T16:32:22.128Z,40.50
2018-09-30T16:34:50.747Z,40.70
2018-09-30T16:37:19.451Z,41.50
2018-09-30T16:39:48.102Z,41.50
2018-09-30T16:42:17.607Z,41.50
2018-09-30T16:44:46.187Z,41.80
2018-09-30T16:47:14.927Z,42.20
2018-09-30T16:49:43.547Z,42.40
2018-09-30T16:52:12.077Z,42.70
2018-09-30T16:54:40.575Z,42.70
2018-09-30T16:57:09.141Z,43.00
2018-09-30T16:59:37.642Z,43.20
2018-09-30T17:02:06.418Z,43.80
2018-09-30T17:04:35.045Z,44.40
2018-09-30T17:07:03.734Z,44.30
2018-09-30T17:09:32.435Z,44.50
2018-09-30T17:12:01.051Z,44.50
2018-09-30T17:14:29.681Z,44.80
2018-09-30T17:16:58.242Z,45.00
2018-09-30T17:19:26.891Z,45.20
2018-09-30T17:21:55.548Z,45.50
2018-09-30T17:24:24.133Z,45.80
2018-09-30T17:26:52.940Z,46.20
2018-09-30T17:29:24.426Z,46.70
2018-09-30T17:31:52.969Z,46.90
2018-09-30T17:34:21.507Z,47.20
2018-09-30T17:36:50.109Z,47.70
2018-09-30T17:39:18.867Z,47.90
2018-09-30T17:41:47.649Z,47.80
2018-09-30T17:44:16.117Z,48.00
2018-09-30T17:46:44.835Z,48.10
2018-09-30T17:49:13.341Z,48.30
2018-09-30T17:51:41.952Z,48.30
2018-09-30T17:54:10.616Z,48.50
2018-09-30T17:56:39.316Z,48.60
2018-09-30T17:59:08.087Z,48.80
2018-09-30T18:01:36.896Z,49.20
2018-09-30T18:04:05.657Z,49.70
2018-09-30T18:06:34.247Z,49.90
2018-09-30T18:09:02.966Z,50.40
2018-09-30T18:11:31.817Z,50.50
2018-09-30T18:14:00.649Z,50.90
2018-09-30T18:16:29.223Z,51.20
2018-09-30T18:18:57.936Z,51.90
2018-09-30T18:21:26.619Z,52.50
2018-09-30T18:23:55.465Z,53.00
2018-09-30T18:26:24.832Z,53.40
2018-09-30T18:28:53.534Z,53.80
2018-09-30T18:31:22.112Z,54.30
2018-09-30T18:33:51.081Z,55.30
2018-09-30T18:36:20.612Z,55.80
2018-09-30T18:38:49.678Z,55.90
2018-09-30T18:41:18.489Z,56.90
2018-09-30T18:43:47.200Z,57.80
2018-09-30T18:46:16.289Z,57.80
2018-09-30T18:48:45.329Z,58.70
2018-09-30T18:51:14.636Z,59.50
2018-09-30T18:53:43.783Z,59.70
2018-09-30T18:56:12.835Z,60.40
2018-09-30T18:58:41.914Z,61.30
2018-09-30T19:01:10.991Z,61.80
2018-09-30T19:03:40.194Z,62.90
2018-09-30T19:06:09.110Z,64.70
2018-09-30T19:08:38.181Z,66.40
2018-09-30T19:11:07.190Z,67.60
2018-09-30T19:13:36.178Z,69.10
2018-09-30T19:16:05.292Z,70.60
2018-09-30T19:18:34.461Z,71.60
2018-09-30T19:21:03.660Z,72.70
2018-09-30T19:23:32.652Z,74.30
2018-09-30T19:26:01.336Z,74.50
2018-09-30T19:28:30.063Z,75.10
2018-09-30T19:30:58.629Z,75.80
2018-09-30T19:33:27.140Z,76.80
2018-09-30T19:35:55.733Z,78.10
2018-09-30T19:38:24.298Z,78.50
2018-09-30T19:40:52.851Z,78.40
2018-09-30T19:43:21.590Z,78.30
2018-09-30T19:45:50.214Z,78.30
2018-09-30T19:48:19.019Z,78.70
2018-09-30T19:50:47.560Z,78.80
2018-09-30T19:53:16.382Z,78.80
2018-09-30T19:55:45.171Z,78.90
2018-09-30T19:58:15.329Z,79.00
2018-09-30T20:00:43.916Z,79.20
2018-09-30T20:03:12.514Z,79.00
2018-09-30T20:05:41.010Z,79.30
2018-09-30T20:08:09.647Z,79.50
2018-09-30T20:10:38.325Z,79.80
2018-09-30T20:13:07.169Z,80.20
2018-09-30T20:15:35.722Z,80.40
2018-09-30T20:18:04.448Z,80.70
2018-09-30T20:20:32.919Z,81.40
2018-09-30T20:23:01.515Z,81.90
2018-09-30T20:25:30.247Z,82.40
2018-09-30T20:27:58.792Z,82.70
2018-09-30T20:30:27.429Z,83.50
2018-09-30T20:32:59.378Z,83.90
2018-09-30T20:35:28.250Z,84.60
2018-09-30T20:37:56.798Z,84.50
2018-09-30T20:40:25.286Z,84.90
2018-09-30T20:42:53.730Z,85.30
2018-09-30T20:45:22.287Z,85.60
2018-09-30T20:47:50.915Z,86.10
2018-09-30T20:50:19.377Z,86.30
2018-09-30T20:52:48.038Z,86.30
2018-09-30T20:55:16.584Z,86.30
2018-09-30T20:57:45.327Z,86.60
2018-09-30T21:00:13.993Z,86.70
2018-09-30T21:02:42.497Z,86.70
2018-09-30T21:05:20.096Z,86.60
2018-09-30T21:07:48.688Z,87.10
2018-09-30T21:10:17.156Z,87.90
2018-09-30T21:12:45.769Z,88.80
2018-09-30T21:15:14.237Z,89.10
2018-09-30T21:17:42.756Z,89.80
2018-09-30T21:20:11.319Z,90.30
2018-09-30T21:22:39.839Z,90.50
2018-09-30T21:25:08.389Z,90.50
2018-09-30T21:27:36.950Z,90.60
2018-09-30T21:30:06.267Z,90.50
2018-09-30T21:32:34.749Z,90.50
2018-09-30T21:35:03.276Z,90.60
2018-09-30T21:37:31.717Z,90.70
2018-09-30T21:40:00.211Z,90.80
2018-09-30T21:42:28.770Z,90.80
2018-09-30T21:44:57.391Z,90.70
2018-09-30T21:47:25.898Z,91.10
2018-09-30T21:49:54.358Z,91.00
2018-09-30T21:52:23.154Z,91.40
2018-09-30T21:54:51.990Z,91.10
2018-09-30T21:57:20.556Z,91.00
2018-09-30T21:59:49.014Z,91.10
2018-09-30T22:02:17.810Z,91.00
2018-09-30T22:04:46.393Z,91.10
2018-09-30T22:07:14.864Z,91.20
2018-09-30T22:09:43.633Z,91.20
2018-09-30T22:12:12.177Z,91.20
2018-09-30T22:14:40.693Z,91.40
2018-09-30T22:17:09.274Z,91.90
2018-09-30T22:19:37.806Z,92.30
2018-09-30T22:22:06.841Z,92.40
2018-09-30T22:24:35.466Z,92.70
2018-09-30T22:27:04.088Z,92.80
2018-09-30T22:29:32.846Z,93.00
2018-09-30T22:32:01.482Z,92.70
2018-09-30T22:34:29.973Z,92.60
2018-09-30T22:36:58.421Z,92.30
2018-09-30T22:39:27.373Z,92.20
2018-09-30T22:41:56.099Z,92.00
2018-09-30T22:44:24.747Z,92.40
2018-09-30T22:46:53.314Z,92.00
2018-09-30T22:49:21.969Z,91.80
2018-09-30T22:51:50.764Z,91.60
2018-09-30T22:54:19.254Z,91.60
2018-09-30T22:56:48.065Z,91.60
2018-09-30T22:59:16.713Z,91.90
2018-09-30T23:01:45.285Z,91.70
2018-09-30T23:04:13.925Z,91.80
2018-09-30T23:06:42.481Z,92.10
2018-09-30T23:09:11.141Z,92.10
2018-09-30T23:11:39.847Z,92.40
2018-09-30T23:14:08.706Z,92.40
2018-09-30T23:16:37.751Z,92.40
2018-09-30T23:19:07.108Z,92.60
2018-09-30T23:21:35.586Z,93.00
2018-09-30T23:24:04.197Z,92.90
2018-09-30T23:26:33.031Z,93.30
2018-09-30T23:29:01.564Z,93.40
2018-09-30T23:31:30.170Z,93.50
2018-09-30T23:33:58.908Z,93.80
2018-09-30T23:36:27.731Z,94.00
2018-09-30T23:38:56.241Z,93.90
2018-09-30T23:41:24.741Z,93.90
2018-09-30T23:43:53.480Z,93.80
2018-09-30T23:46:22.044Z,93.70
2018-09-30T23:48:51.002Z,93.60
2018-09-30T23:51:20.150Z,93.50
2018-09-30T23:53:49.293Z,93.40
2018-09-30T23:56:18.062Z,93.30
2018-09-30T23:58:46.885Z,93.20
